createdAt,value
2018-11-20T00:01:38.096Z,9.43
2018-11-20T00:04:30.864Z,9.70
2018-11-20T00:07:31.746Z,9.13
2018-11-20T00:10:29.378Z,9.40
2018-11-20T00:13:26.362Z,8.80
2018-11-20T00:16:15.580Z,9.47
2018-11-20T00:19:12.568Z,13.17
2018-11-20T00:22:17.284Z,12.10
2018-11-20T00:25:10.929Z,12.80
2018-11-20T00:27:59.477Z,12.30
2018-11-20T00:30:36.014Z,13.83
2018-11-20T00:33:31.647Z,15.37
2018-11-20T00:36:24.944Z,15.70
2018-11-20T00:39:37.838Z,15.97
2018-11-20T00:42:21.990Z,16.17
2018-11-20T00:45:25.583Z,15.70
2018-11-20T00:48:22.611Z,15.00
2018-11-20T00:51:15.807Z,13.70
2018-11-20T00:54:34.569Z,13.83
2018-11-20T00:57:37.581Z,13.00
2018-11-20T01:00:30.242Z,14.53
2018-11-20T01:03:18.818Z,11.37
2018-11-20T01:06:34.121Z,18.13
2018-11-20T01:12:59.972Z,15.73
2018-11-20T01:15:52.383Z,13.80
2018-11-20T01:18:47.111Z,14.80
2018-11-20T01:21:39.777Z,12.73
2018-11-20T01:24:33.130Z,14.27
2018-11-20T01:27:41.955Z,13.00
2018-11-20T01:30:43.854Z,15.30
2018-11-20T01:33:33.419Z,11.47
2018-11-20T01:36:21.355Z,9.67
2018-11-20T01:39:19.125Z,10.63
2018-11-20T01:42:23.705Z,9.47
2018-11-20T01:45:05.549Z,10.05
2018-11-20T01:47:54.544Z,9.30
2018-11-20T01:50:50.253Z,10.30
2018-11-20T01:53:38.311Z,9.50
2018-11-20T01:56:26.596Z,10.47
2018-11-20T01:59:14.301Z,10.57
2018-11-20T02:02:18.913Z,10.37
2018-11-20T02:05:20.653Z,11.17
2018-11-20T02:08:28.387Z,9.63
2018-11-20T02:11:21.255Z,11.40
2018-11-20T02:14:44.997Z,10.37
2018-11-20T02:18:08.838Z,10.98
2018-11-20T02:20:51.969Z,9.93
2018-11-20T02:23:41.506Z,11.47
2018-11-20T02:26:28.977Z,12.13
2018-11-20T02:29:17.328Z,12.37
2018-11-20T02:32:05.409Z,11.40
2018-11-20T02:35:13.281Z,12.90
2018-11-20T02:38:21.223Z,12.07
2018-11-20T02:41:09.456Z,13.60
2018-11-20T02:43:59.248Z,12.23
2018-11-20T02:46:53.966Z,13.03
2018-11-20T02:49:36.981Z,13.57
2018-11-20T02:52:35.609Z,10.83
2018-11-20T02:55:24.155Z,11.13
2018-11-20T02:58:25.839Z,12.70
2018-11-20T03:01:18.311Z,11.03
2018-11-20T03:04:13.556Z,12.47
2018-11-20T03:06:59.557Z,12.20
2018-11-20T03:09:50.326Z,19.40
2018-11-20T03:12:38.616Z,14.93
2018-11-20T03:15:26.716Z,12.33
2018-11-20T03:18:31.293Z,15.20
2018-11-20T03:21:17.569Z,14.57
2018-11-20T03:23:57.831Z,13.67
2018-11-20T03:26:47.389Z,15.93
2018-11-20T03:30:07.213Z,13.70
2018-11-20T03:32:59.783Z,15.70
2018-11-20T03:35:56.511Z,14.30
2018-11-20T03:38:44.623Z,12.97
2018-11-20T03:41:25.387Z,13.80
2018-11-20T03:44:06.739Z,13.33
2018-11-20T03:47:02.367Z,14.90
2018-11-20T03:50:00.965Z,14.13
2018-11-20T03:52:59.371Z,14.47
2018-11-20T03:55:40.267Z,15.80
2018-11-20T03:58:33.385Z,16.07
2018-11-20T04:01:37.900Z,15.20
2018-11-20T04:04:39.405Z,15.00
2018-11-20T04:07:37.497Z,13.80
2018-11-20T04:10:27.206Z,12.97
2018-11-20T04:13:16.771Z,14.67
2018-11-20T04:15:59.298Z,14.73
2018-11-20T04:18:54.881Z,14.80
2018-11-20T04:21:44.441Z,13.75
2018-11-20T04:24:34.017Z,14.60
2018-11-20T04:27:33.869Z,12.73
2018-11-20T04:31:13.771Z,13.87
2018-11-20T04:34:03.510Z,13.17
2018-11-20T04:37:03.317Z,15.38
2018-11-20T04:39:41.966Z,12.43
2018-11-20T04:42:30.270Z,15.40
2018-11-20T04:45:18.619Z,13.00
2018-11-20T04:48:08.187Z,14.17
2018-11-20T04:51:09.891Z,13.17
2018-11-20T04:54:05.207Z,14.20
2018-11-20T04:57:57.992Z,17.77
2018-11-20T05:00:48.730Z,12.57
2018-11-20T05:03:43.500Z,16.37
2018-11-20T05:06:30.759Z,15.13
2018-11-20T05:09:17.706Z,14.23
2018-11-20T05:12:05.876Z,15.50
2018-11-20T05:15:12.923Z,13.70
2018-11-20T05:18:07.237Z,15.63
2018-11-20T05:20:54.413Z,15.90
2018-11-20T05:23:45.945Z,14.30
2018-11-20T05:26:43.631Z,13.70
2018-11-20T05:29:30.575Z,15.70
2018-11-20T05:32:17.445Z,13.07
2018-11-20T05:35:18.047Z,13.97
2018-11-20T05:37:55.547Z,14.40
2018-11-20T05:40:35.927Z,12.50
2018-11-20T05:43:23.947Z,15.53
2018-11-20T05:46:16.812Z,13.93
2018-11-20T05:49:11.111Z,14.80
2018-11-20T05:51:57.965Z,14.47
2018-11-20T05:54:40.416Z,14.73
2018-11-20T05:57:27.468Z,16.60
2018-11-20T06:00:15.809Z,15.53
2018-11-20T06:03:13.085Z,15.87
2018-11-20T06:06:01.483Z,17.10
2018-11-20T06:08:41.846Z,18.97
2018-11-20T06:11:31.114Z,17.95
2018-11-20T06:14:22.171Z,15.13
2018-11-20T06:17:08.965Z,19.17
2018-11-20T06:19:53.685Z,17.10
2018-11-20T06:22:50.961Z,14.10
2018-11-20T06:25:45.582Z,17.15
2018-11-20T06:28:33.135Z,15.10
2018-11-20T06:31:27.377Z,15.47
2018-11-20T06:34:13.056Z,16.60
2018-11-20T06:37:04.084Z,15.87
2018-11-20T06:40:00.584Z,16.70
2018-11-20T06:42:47.732Z,19.47
2018-11-20T06:45:48.401Z,21.37
2018-11-20T06:48:49.467Z,16.13
2018-11-20T06:51:25.268Z,19.57
2018-11-20T06:54:16.978Z,18.57
2018-11-20T06:57:23.400Z,17.90
2018-11-20T07:00:29.996Z,21.03
2018-11-20T07:03:27.009Z,19.50
2018-11-20T07:06:08.884Z,20.33
2018-11-20T07:08:56.216Z,20.57
2018-11-20T07:11:42.001Z,23.97
2018-11-20T07:14:33.226Z,23.27
2018-11-20T07:17:28.460Z,22.93
2018-11-20T07:20:17.966Z,23.90
2018-11-20T07:23:12.140Z,18.17
2018-11-20T07:25:49.365Z,23.37
2018-11-20T07:28:36.016Z,24.27
2018-11-20T07:31:23.553Z,25.77
2018-11-20T07:34:10.475Z,22.93
2018-11-20T07:36:57.608Z,26.93
2018-11-20T07:39:48.540Z,25.53
2018-11-20T07:42:26.617Z,21.37
2018-11-20T07:45:10.440Z,23.80
2018-11-20T07:48:01.943Z,23.60
2018-11-20T07:50:38.833Z,23.07
2018-11-20T07:53:25.995Z,24.50
2018-11-20T07:56:17.180Z,26.83
2018-11-20T07:59:07.656Z,24.57
2018-11-20T08:01:58.580Z,25.43
2018-11-20T08:04:52.744Z,24.00
2018-11-20T08:07:33.908Z,22.63
2018-11-20T08:10:10.127Z,20.97
2018-11-20T08:12:55.687Z,23.37
2018-11-20T08:15:34.600Z,27.30
2018-11-20T08:18:22.054Z,22.43
2018-11-20T08:21:10.447Z,20.67
2018-11-20T08:23:57.718Z,21.43
2018-11-20T08:26:49.047Z,18.87
2018-11-20T08:29:40.340Z,21.13
2018-11-20T08:32:26.236Z,23.17
2018-11-20T08:35:20.593Z,19.67
2018-11-20T08:38:12.653Z,19.40
2018-11-20T08:40:59.513Z,19.13
2018-11-20T08:43:47.827Z,18.40
2018-11-20T08:46:34.650Z,18.60
2018-11-20T08:49:32.374Z,21.40
2018-11-20T08:52:29.766Z,22.87
2018-11-20T08:55:16.625Z,19.00
2018-11-20T08:58:03.548Z,20.93
2018-11-20T09:01:00.833Z,21.60
2018-11-20T09:03:47.585Z,23.57
2018-11-20T09:06:41.612Z,19.73
2018-11-20T09:09:28.649Z,21.90
2018-11-20T09:12:23.088Z,22.13
2018-11-20T09:15:17.387Z,20.67
2018-11-20T09:18:08.719Z,24.00
2018-11-20T09:21:03.128Z,25.77
2018-11-20T09:23:47.636Z,22.50
2018-11-20T09:26:51.113Z,22.53
2018-11-20T09:29:42.157Z,23.40
2018-11-20T09:32:26.880Z,25.25
2018-11-20T09:35:18.530Z,27.80
2018-11-20T09:37:59.650Z,25.53
2018-11-20T09:41:04.287Z,23.60
2018-11-20T09:44:46.074Z,23.77
2018-11-20T09:47:47.010Z,22.15
2018-11-20T09:50:24.013Z,22.47
2018-11-20T09:53:25.643Z,21.77
2018-11-20T09:56:12.348Z,20.53
2018-11-20T09:59:00.713Z,21.77
2018-11-20T10:01:51.546Z,23.73
2018-11-20T10:04:38.432Z,20.03
2018-11-20T10:07:42.030Z,22.30
2018-11-20T10:10:28.872Z,25.25
2018-11-20T10:13:26.329Z,19.03
2018-11-20T10:16:14.600Z,27.33
2018-11-20T10:18:54.719Z,22.60
2018-11-20T10:21:41.642Z,24.20
2018-11-20T10:24:29.908Z,22.32
2018-11-20T10:27:18.351Z,20.50
2018-11-20T10:29:59.579Z,21.60
2018-11-20T10:32:46.378Z,21.03
2018-11-20T10:35:33.799Z,21.80
2018-11-20T10:38:21.554Z,23.37
2018-11-20T10:41:08.429Z,19.90
2018-11-20T10:44:02.400Z,19.53
2018-11-20T10:46:49.326Z,20.70
2018-11-20T10:49:34.397Z,21.30
2018-11-20T10:52:25.566Z,24.80
2018-11-20T10:55:13.448Z,22.07
2018-11-20T10:57:58.791Z,23.07
2018-11-20T11:00:45.682Z,21.17
2018-11-20T11:03:46.011Z,24.98
2018-11-20T11:06:35.336Z,20.47
2018-11-20T11:09:21.884Z,23.13
2018-11-20T11:12:00.056Z,25.20
2018-11-20T11:14:48.428Z,21.97
2018-11-20T11:17:39.777Z,27.13
2018-11-20T11:20:26.956Z,23.60
2018-11-20T11:23:18.153Z,25.67
2018-11-20T11:25:59.433Z,25.27
2018-11-20T11:29:06.268Z,23.63
2018-11-20T11:31:52.619Z,26.97
2018-11-20T11:34:43.735Z,25.37
2018-11-20T11:37:31.716Z,27.60
2018-11-20T11:40:22.726Z,27.67
2018-11-20T11:43:08.368Z,27.00
2018-11-20T11:46:04.302Z,23.23
2018-11-20T11:48:55.625Z,27.07
2018-11-20T11:51:38.436Z,28.23
2018-11-20T11:54:31.418Z,24.53
2018-11-20T11:57:38.198Z,26.57
2018-11-20T12:00:23.123Z,28.87
2018-11-20T12:03:11.482Z,26.30
2018-11-20T12:05:51.810Z,31.60
2018-11-20T12:08:39.789Z,27.62
2018-11-20T12:11:28.159Z,27.13
2018-11-20T12:14:22.532Z,27.57
2018-11-20T12:17:08.315Z,25.57
2018-11-20T12:20:08.900Z,29.20
2018-11-20T12:22:56.526Z,30.47
2018-11-20T12:25:56.757Z,29.13
